Savant Lake, Canada
Current Conditions -  °F | °C
As of 4:00 AM on Sunday 21 Dec 2014 (Local Time) from CYXL Reporting Station
Light Snow Light Snow  
Wind Chill: 20°   Ceiling: 600
Heat Index: 28°   Visibility: 3mi
Dew Point: 27°   Wind: 9mph
Humidity: 93%   Direction: 170°S
Pressure: 29.88"   Gusts: NA
Location:  50.23°N, 90.72°W
Report Text: CYXL 211000Z 17008KT 3SM -FZDZ -SN OVC006 M02/M03 A2988 RMK SF8 SLP142
Loading
Personal Weather Stations






























Interactive Weather Map New forecast layout! Learn more

10-Day Weather Forecast

Advertisements
Track Severe Weather on mobile